XRC1012 LFMN-DTTA
Flight info
| Callsign | XRC1012 |
|---|---|
| Flight time | 1h 9m |
| Altitude | 35000 |
| Route | VAREK DCT LOKDU DCT PELOS DCT IPROM DCT KOVAS DCT CAR DCT NOLSI UA868 MEDAR |
| Aircraft | B738/M-SDE2E3FGHIRWXY/LB1 |
Departure
| Time | 2026-05-01 12:13 |
|---|---|
| Airport | Nice-Côte d'Azur Airport (LFMN) |
Arrival
| Time | 2026-05-01 13:23 |
|---|---|
| Airport | Tunis Carthage International Airport (DTTA) |
| Time | Latitude | Longitude | Altitude | Speed | Heading |
|---|---|---|---|---|---|
| 2026-05-01 11:50 | 43.66374 | 7.20800 | 21 ft | 0 kts | 352° |
| 2026-05-01 12:02 | 43.66360 | 7.20803 | 24 ft | 4 kts | 352° |
| 2026-05-01 12:02 | 43.66334 | 7.20808 | 22 ft | 4 kts | 339° |
| 2026-05-01 12:02 | 43.66316 | 7.20828 | 21 ft | 4 kts | 286° |
| 2026-05-01 12:03 | 43.66314 | 7.20853 | 21 ft | 0 kts | 261° |
| 2026-05-01 12:05 | 43.66313 | 7.20846 | 21 ft | 4 kts | 261° |
| 2026-05-01 12:06 | 43.66277 | 7.20771 | 22 ft | 15 kts | 200° |
| 2026-05-01 12:06 | 43.66144 | 7.20789 | 21 ft | 21 kts | 170° |
| 2026-05-01 12:06 | 43.66005 | 7.20819 | 21 ft | 20 kts | 171° |
| 2026-05-01 12:06 | 43.65870 | 7.20850 | 21 ft | 19 kts | 171° |
| 2026-05-01 12:07 | 43.65759 | 7.20861 | 21 ft | 14 kts | 198° |
| 2026-05-01 12:07 | 43.65679 | 7.20768 | 22 ft | 18 kts | 226° |
| 2026-05-01 12:07 | 43.65578 | 7.20631 | 22 ft | 22 kts | 224° |
| 2026-05-01 12:07 | 43.65467 | 7.20480 | 22 ft | 22 kts | 225° |
| 2026-05-01 12:08 | 43.65362 | 7.20334 | 21 ft | 19 kts | 221° |
| 2026-05-01 12:08 | 43.65243 | 7.20350 | 22 ft | 19 kts | 142° |
| 2026-05-01 12:08 | 43.65150 | 7.20470 | 23 ft | 18 kts | 142° |
| 2026-05-01 12:08 | 43.65035 | 7.20492 | 23 ft | 17 kts | 201° |
| 2026-05-01 12:09 | 43.64943 | 7.20397 | 22 ft | 14 kts | 225° |
| 2026-05-01 12:09 | 43.64881 | 7.20313 | 22 ft | 11 kts | 223° |
| 2026-05-01 12:09 | 43.64832 | 7.20265 | 21 ft | 4 kts | 188° |
| 2026-05-01 12:09 | 43.64823 | 7.20266 | 21 ft | 0 kts | 172° |
| 2026-05-01 12:10 | 43.64822 | 7.20266 | 21 ft | 0 kts | 171° |
| 2026-05-01 12:10 | 43.64759 | 7.20343 | 23 ft | 10 kts | 127° |
| 2026-05-01 12:10 | 43.64774 | 7.20387 | 21 ft | 0 kts | 46° |
| 2026-05-01 12:12 | 43.64843 | 7.20486 | 23 ft | 42 kts | 45° |
| 2026-05-01 12:12 | 43.65245 | 7.21035 | 22 ft | 118 kts | 45° |
| 2026-05-01 12:13 | 43.65956 | 7.22068 | 43 ft | 176 kts | 45° |
| 2026-05-01 12:13 | 43.66810 | 7.23175 | 986 ft | 161 kts | 44° |
| 2026-05-01 12:13 | 43.67389 | 7.24117 | 1765 ft | 159 kts | 71° |
| 2026-05-01 12:13 | 43.67302 | 7.25590 | 2483 ft | 164 kts | 123° |
| 2026-05-01 12:14 | 43.66367 | 7.26610 | 3033 ft | 186 kts | 145° |
| 2026-05-01 12:14 | 43.65276 | 7.27716 | 3667 ft | 199 kts | 141° |
| 2026-05-01 12:14 | 43.64142 | 7.28985 | 4096 ft | 220 kts | 138° |
| 2026-05-01 12:14 | 43.62956 | 7.30395 | 4699 ft | 229 kts | 137° |
| 2026-05-01 12:15 | 43.61763 | 7.31861 | 5566 ft | 229 kts | 136° |
| 2026-05-01 12:15 | 43.60590 | 7.33327 | 6490 ft | 227 kts | 135° |
| 2026-05-01 12:15 | 43.59297 | 7.34611 | 7292 ft | 234 kts | 155° |
| 2026-05-01 12:15 | 43.57745 | 7.35352 | 8076 ft | 237 kts | 159° |
| 2026-05-01 12:16 | 43.56174 | 7.36114 | 8861 ft | 240 kts | 158° |
| 2026-05-01 12:16 | 43.54594 | 7.36903 | 9638 ft | 243 kts | 158° |
| 2026-05-01 12:16 | 43.53011 | 7.37701 | 10354 ft | 248 kts | 156° |
| 2026-05-01 12:16 | 43.51357 | 7.38494 | 10975 ft | 258 kts | 158° |
| 2026-05-01 12:17 | 43.49589 | 7.39384 | 11240 ft | 284 kts | 156° |
| 2026-05-01 12:17 | 43.47657 | 7.40379 | 11461 ft | 310 kts | 157° |
| 2026-05-01 12:17 | 43.45560 | 7.41455 | 11663 ft | 336 kts | 157° |
| 2026-05-01 12:17 | 43.43287 | 7.42616 | 11898 ft | 358 kts | 157° |
| 2026-05-01 12:18 | 43.40910 | 7.43823 | 12442 ft | 369 kts | 157° |
| 2026-05-01 12:18 | 43.38488 | 7.45045 | 13198 ft | 372 kts | 157° |
| 2026-05-01 12:18 | 43.36047 | 7.46271 | 13950 ft | 375 kts | 157° |
| 2026-05-01 12:18 | 43.33582 | 7.47512 | 14653 ft | 379 kts | 157° |
| 2026-05-01 12:19 | 43.31094 | 7.48765 | 15382 ft | 383 kts | 157° |
| 2026-05-01 12:19 | 43.28584 | 7.50029 | 16069 ft | 386 kts | 157° |
| 2026-05-01 12:19 | 43.26047 | 7.51306 | 16732 ft | 390 kts | 156° |
| 2026-05-01 12:19 | 43.23482 | 7.52595 | 17372 ft | 394 kts | 156° |
| 2026-05-01 12:20 | 43.20896 | 7.53893 | 17997 ft | 398 kts | 156° |
| 2026-05-01 12:20 | 43.19167 | 7.54760 | 18398 ft | 401 kts | 156° |
| 2026-05-01 12:20 | 43.16532 | 7.56080 | 19007 ft | 405 kts | 156° |
| 2026-05-01 12:20 | 43.13868 | 7.57413 | 19575 ft | 410 kts | 156° |
| 2026-05-01 12:21 | 43.11177 | 7.58759 | 20122 ft | 414 kts | 157° |
| 2026-05-01 12:21 | 43.08458 | 7.60117 | 20680 ft | 418 kts | 157° |
| 2026-05-01 12:21 | 43.05715 | 7.61486 | 21196 ft | 422 kts | 157° |
| 2026-05-01 12:21 | 43.02948 | 7.62864 | 21711 ft | 426 kts | 157° |
| 2026-05-01 12:22 | 43.00153 | 7.64254 | 22197 ft | 429 kts | 157° |
| 2026-05-01 12:22 | 42.97332 | 7.65656 | 22690 ft | 433 kts | 158° |
| 2026-05-01 12:22 | 42.94488 | 7.67067 | 23138 ft | 437 kts | 158° |
| 2026-05-01 12:22 | 42.91619 | 7.68490 | 23566 ft | 441 kts | 158° |
| 2026-05-01 12:23 | 42.88721 | 7.69927 | 24016 ft | 444 kts | 158° |
| 2026-05-01 12:23 | 42.85805 | 7.71371 | 24456 ft | 447 kts | 158° |
| 2026-05-01 12:23 | 42.82867 | 7.72824 | 24878 ft | 451 kts | 158° |
| 2026-05-01 12:23 | 42.79905 | 7.74287 | 25267 ft | 454 kts | 158° |
| 2026-05-01 12:24 | 42.76925 | 7.75757 | 25664 ft | 457 kts | 158° |
| 2026-05-01 12:24 | 42.73927 | 7.77237 | 26040 ft | 460 kts | 158° |
| 2026-05-01 12:24 | 42.70902 | 7.78727 | 26415 ft | 463 kts | 159° |
| 2026-05-01 12:24 | 42.67864 | 7.80223 | 26768 ft | 466 kts | 159° |
| 2026-05-01 12:25 | 42.64798 | 7.81730 | 27106 ft | 469 kts | 159° |
| 2026-05-01 12:25 | 42.58655 | 7.84746 | 27730 ft | 475 kts | 159° |
| 2026-05-01 12:25 | 42.55536 | 7.86274 | 28086 ft | 478 kts | 159° |
| 2026-05-01 12:26 | 42.52401 | 7.87809 | 28391 ft | 480 kts | 159° |
| 2026-05-01 12:26 | 42.46080 | 7.90898 | 29015 ft | 485 kts | 160° |
| 2026-05-01 12:26 | 42.42897 | 7.92452 | 29291 ft | 488 kts | 160° |
| 2026-05-01 12:27 | 42.39689 | 7.94017 | 29564 ft | 490 kts | 160° |
| 2026-05-01 12:27 | 42.33237 | 7.97158 | 30086 ft | 495 kts | 160° |
| 2026-05-01 12:28 | 42.26525 | 7.99225 | 30639 ft | 497 kts | 174° |
| 2026-05-01 12:28 | 42.23091 | 7.99671 | 31066 ft | 494 kts | 176° |
| 2026-05-01 12:28 | 42.16283 | 8.00500 | 31826 ft | 491 kts | 175° |
| 2026-05-01 12:29 | 42.12885 | 8.00982 | 32139 ft | 491 kts | 175° |
| 2026-05-01 12:29 | 42.09490 | 8.01502 | 32484 ft | 490 kts | 174° |
| 2026-05-01 12:29 | 42.02746 | 8.02573 | 33242 ft | 486 kts | 174° |
| 2026-05-01 12:30 | 41.96040 | 8.03624 | 33845 ft | 485 kts | 174° |
| 2026-05-01 12:30 | 41.92738 | 8.04143 | 34162 ft | 483 kts | 174° |
| 2026-05-01 12:30 | 41.89359 | 8.04677 | 34472 ft | 483 kts | 174° |
| 2026-05-01 12:31 | 41.86020 | 8.05206 | 34744 ft | 483 kts | 175° |
| 2026-05-01 12:31 | 41.82720 | 8.05728 | 34999 ft | 483 kts | 175° |
| 2026-05-01 12:31 | 41.79390 | 8.06252 | 35238 ft | 483 kts | 175° |
| 2026-05-01 12:31 | 41.76047 | 8.06778 | 35439 ft | 484 kts | 175° |
| 2026-05-01 12:32 | 41.72700 | 8.07303 | 35650 ft | 484 kts | 175° |
| 2026-05-01 12:32 | 41.66015 | 8.08352 | 36164 ft | 483 kts | 175° |
| 2026-05-01 12:32 | 41.62682 | 8.08875 | 36412 ft | 482 kts | 176° |
| 2026-05-01 12:33 | 41.59341 | 8.09397 | 36576 ft | 484 kts | 176° |
| 2026-05-01 12:33 | 41.56003 | 8.09918 | 36804 ft | 483 kts | 176° |
| 2026-05-01 12:33 | 41.52672 | 8.10440 | 37202 ft | 478 kts | 176° |
| 2026-05-01 12:33 | 41.49385 | 8.10954 | 37574 ft | 474 kts | 176° |
| 2026-05-01 12:34 | 41.46108 | 8.11465 | 37760 ft | 474 kts | 176° |
| 2026-05-01 12:34 | 41.42828 | 8.11974 | 37869 ft | 476 kts | 177° |
| 2026-05-01 12:34 | 41.39531 | 8.12486 | 37996 ft | 477 kts | 177° |
| 2026-05-01 12:34 | 41.36242 | 8.12997 | 38211 ft | 476 kts | 177° |
| 2026-05-01 12:35 | 41.32954 | 8.13507 | 38440 ft | 475 kts | 177° |
| 2026-05-01 12:35 | 41.29678 | 8.14015 | 38605 ft | 475 kts | 177° |
| 2026-05-01 12:35 | 41.26392 | 8.14524 | 38718 ft | 476 kts | 177° |
| 2026-05-01 12:35 | 41.23105 | 8.15033 | 38889 ft | 475 kts | 177° |
| 2026-05-01 12:36 | 41.19811 | 8.15562 | 39068 ft | 476 kts | 174° |
| 2026-05-01 12:36 | 41.16571 | 8.16575 | 39184 ft | 481 kts | 165° |
| 2026-05-01 12:36 | 41.10546 | 8.20497 | 39227 ft | 486 kts | 149° |
| 2026-05-01 12:37 | 41.04662 | 8.24873 | 39229 ft | 483 kts | 157° |
| 2026-05-01 12:37 | 40.98543 | 8.28487 | 39221 ft | 483 kts | 159° |
| 2026-05-01 12:38 | 40.92422 | 8.32000 | 39222 ft | 482 kts | 159° |
| 2026-05-01 12:38 | 40.86276 | 8.35615 | 39221 ft | 482 kts | 158° |
| 2026-05-01 12:39 | 40.80170 | 8.39263 | 39218 ft | 482 kts | 158° |
| 2026-05-01 12:39 | 40.74053 | 8.42925 | 39212 ft | 482 kts | 158° |
| 2026-05-01 12:40 | 40.67938 | 8.46575 | 39211 ft | 482 kts | 158° |
| 2026-05-01 12:40 | 40.61840 | 8.50205 | 39208 ft | 481 kts | 159° |
| 2026-05-01 12:41 | 40.55779 | 8.53803 | 39212 ft | 480 kts | 159° |
| 2026-05-01 12:41 | 40.49698 | 8.57407 | 39210 ft | 480 kts | 159° |
| 2026-05-01 12:42 | 40.43609 | 8.61007 | 39211 ft | 479 kts | 159° |
| 2026-05-01 12:42 | 40.37536 | 8.64591 | 39214 ft | 478 kts | 159° |
| 2026-05-01 12:43 | 40.31454 | 8.68174 | 39217 ft | 478 kts | 159° |
| 2026-05-01 12:43 | 40.25390 | 8.71739 | 39212 ft | 478 kts | 159° |
| 2026-05-01 12:44 | 40.19316 | 8.75303 | 39211 ft | 478 kts | 159° |
| 2026-05-01 12:45 | 40.07189 | 8.82398 | 39208 ft | 478 kts | 159° |
| 2026-05-01 12:45 | 40.01107 | 8.85945 | 39202 ft | 479 kts | 159° |
| 2026-05-01 12:46 | 39.95016 | 8.89481 | 39203 ft | 479 kts | 161° |
| 2026-05-01 12:46 | 39.88897 | 8.92964 | 39171 ft | 480 kts | 160° |
| 2026-05-01 12:47 | 39.82820 | 8.96554 | 39182 ft | 480 kts | 160° |
| 2026-05-01 12:47 | 39.76729 | 9.00103 | 39194 ft | 480 kts | 160° |
| 2026-05-01 12:48 | 39.70615 | 9.03632 | 39178 ft | 479 kts | 160° |
| 2026-05-01 12:48 | 39.64528 | 9.07173 | 39174 ft | 481 kts | 157° |
| 2026-05-01 12:49 | 39.58768 | 9.11652 | 39171 ft | 484 kts | 150° |
| 2026-05-01 12:49 | 39.53159 | 9.16412 | 39167 ft | 484 kts | 150° |
| 2026-05-01 12:50 | 39.47453 | 9.21183 | 39169 ft | 484 kts | 151° |
| 2026-05-01 12:50 | 39.41803 | 9.25822 | 39176 ft | 484 kts | 151° |
| 2026-05-01 12:51 | 39.36113 | 9.30464 | 39171 ft | 484 kts | 151° |
| 2026-05-01 12:52 | 39.27580 | 9.37421 | 39202 ft | 484 kts | 151° |
| 2026-05-01 12:52 | 39.19032 | 9.44366 | 39191 ft | 485 kts | 151° |
| 2026-05-01 12:53 | 39.10467 | 9.51308 | 39203 ft | 484 kts | 152° |
| 2026-05-01 12:54 | 39.04673 | 9.55677 | 39189 ft | 483 kts | 154° |
| 2026-05-01 12:54 | 38.98936 | 9.59827 | 39162 ft | 459 kts | 155° |
| 2026-05-01 12:54 | 38.96186 | 9.61821 | 39168 ft | 451 kts | 155° |
| 2026-05-01 12:55 | 38.87983 | 9.67797 | 39177 ft | 459 kts | 154° |
| 2026-05-01 12:55 | 38.85174 | 9.69850 | 38938 ft | 461 kts | 154° |
| 2026-05-01 12:56 | 38.82395 | 9.71884 | 38362 ft | 461 kts | 155° |
| 2026-05-01 12:56 | 38.79624 | 9.73910 | 37599 ft | 467 kts | 155° |
| 2026-05-01 12:56 | 38.76788 | 9.75981 | 36832 ft | 473 kts | 155° |
| 2026-05-01 12:56 | 38.73911 | 9.78080 | 36062 ft | 477 kts | 155° |
| 2026-05-01 12:57 | 38.71009 | 9.80197 | 35312 ft | 481 kts | 155° |
| 2026-05-01 12:57 | 38.65142 | 9.84469 | 33669 ft | 490 kts | 156° |
| 2026-05-01 12:57 | 38.62158 | 9.86637 | 32805 ft | 495 kts | 155° |
| 2026-05-01 12:58 | 38.59157 | 9.88817 | 31967 ft | 498 kts | 156° |
| 2026-05-01 12:58 | 38.56134 | 9.91012 | 31262 ft | 498 kts | 156° |
| 2026-05-01 12:58 | 38.53142 | 9.93187 | 30781 ft | 492 kts | 156° |
| 2026-05-01 12:59 | 38.47263 | 9.97456 | 29869 ft | 480 kts | 156° |
| 2026-05-01 12:59 | 38.44375 | 9.99545 | 29311 ft | 476 kts | 156° |
| 2026-05-01 12:59 | 38.38674 | 10.03658 | 28098 ft | 472 kts | 156° |
| 2026-05-01 13:00 | 38.32969 | 10.07767 | 26996 ft | 465 kts | 155° |
| 2026-05-01 13:00 | 38.30199 | 10.09761 | 26500 ft | 460 kts | 155° |
| 2026-05-01 13:01 | 38.24616 | 10.13774 | 25404 ft | 454 kts | 154° |
| 2026-05-01 13:01 | 38.21876 | 10.15739 | 24839 ft | 451 kts | 154° |
| 2026-05-01 13:01 | 38.16479 | 10.19607 | 23775 ft | 445 kts | 153° |
| 2026-05-01 13:02 | 38.13796 | 10.21527 | 23253 ft | 441 kts | 153° |
| 2026-05-01 13:07 | 37.58262 | 10.26486 | 10869 ft | 328 kts | 184° |
| 2026-05-01 13:07 | 37.55999 | 10.26382 | 10732 ft | 324 kts | 184° |
| 2026-05-01 13:07 | 37.53747 | 10.26278 | 10587 ft | 324 kts | 184° |
| 2026-05-01 13:08 | 37.51500 | 10.26168 | 10443 ft | 320 kts | 185° |
| 2026-05-01 13:08 | 37.50044 | 10.26054 | 10350 ft | 313 kts | 186° |
| 2026-05-01 13:08 | 37.47907 | 10.25844 | 10216 ft | 304 kts | 187° |
| 2026-05-01 13:08 | 37.45834 | 10.25625 | 9999 ft | 299 kts | 186° |
| 2026-05-01 13:09 | 37.43762 | 10.25409 | 9710 ft | 298 kts | 186° |
| 2026-05-01 13:09 | 37.41030 | 10.25125 | 9337 ft | 296 kts | 186° |
| 2026-05-01 13:09 | 37.38985 | 10.24915 | 9036 ft | 294 kts | 185° |
| 2026-05-01 13:09 | 37.36950 | 10.24708 | 8727 ft | 293 kts | 185° |
| 2026-05-01 13:10 | 37.35577 | 10.24568 | 8531 ft | 292 kts | 185° |
| 2026-05-01 13:10 | 37.33553 | 10.24366 | 8241 ft | 291 kts | 185° |
| 2026-05-01 13:10 | 37.31566 | 10.24170 | 7950 ft | 290 kts | 185° |
| 2026-05-01 13:10 | 37.29553 | 10.23969 | 7656 ft | 289 kts | 185° |
| 2026-05-01 13:11 | 37.27556 | 10.23769 | 7362 ft | 287 kts | 185° |
| 2026-05-01 13:11 | 37.25565 | 10.23572 | 7071 ft | 286 kts | 185° |
| 2026-05-01 13:11 | 37.23589 | 10.23378 | 6777 ft | 284 kts | 185° |
| 2026-05-01 13:11 | 37.21625 | 10.23183 | 6451 ft | 284 kts | 184° |
| 2026-05-01 13:12 | 37.19635 | 10.22986 | 6056 ft | 287 kts | 184° |
| 2026-05-01 13:12 | 37.17649 | 10.22790 | 5766 ft | 285 kts | 184° |
| 2026-05-01 13:12 | 37.15669 | 10.22591 | 5462 ft | 286 kts | 185° |
| 2026-05-01 13:12 | 37.13689 | 10.22383 | 5144 ft | 285 kts | 184° |
| 2026-05-01 13:13 | 37.11716 | 10.22197 | 4859 ft | 283 kts | 184° |
| 2026-05-01 13:13 | 37.09759 | 10.21993 | 4577 ft | 281 kts | 185° |
| 2026-05-01 13:13 | 37.07820 | 10.21773 | 4287 ft | 279 kts | 183° |
| 2026-05-01 13:13 | 37.05899 | 10.21607 | 4042 ft | 275 kts | 183° |
| 2026-05-01 13:14 | 37.04022 | 10.21438 | 3937 ft | 266 kts | 183° |
| 2026-05-01 13:14 | 37.02200 | 10.21267 | 3820 ft | 258 kts | 183° |
| 2026-05-01 13:14 | 37.00460 | 10.21099 | 3714 ft | 250 kts | 183° |
| 2026-05-01 13:14 | 36.98748 | 10.20933 | 3605 ft | 244 kts | 182° |
| 2026-05-01 13:15 | 36.97073 | 10.20771 | 3431 ft | 240 kts | 183° |
| 2026-05-01 13:15 | 36.95412 | 10.20606 | 3204 ft | 239 kts | 183° |
| 2026-05-01 13:15 | 36.93761 | 10.20446 | 2970 ft | 238 kts | 182° |
| 2026-05-01 13:15 | 36.92118 | 10.20285 | 2750 ft | 235 kts | 182° |
| 2026-05-01 13:16 | 36.90533 | 10.20441 | 2484 ft | 225 kts | 155° |
| 2026-05-01 13:16 | 36.89138 | 10.21226 | 2298 ft | 216 kts | 164° |
| 2026-05-01 13:16 | 36.87700 | 10.21147 | 2275 ft | 206 kts | 197° |
| 2026-05-01 13:17 | 36.83894 | 10.19334 | 2282 ft | 185 kts | 196° |
| 2026-05-01 13:17 | 36.82669 | 10.18874 | 2277 ft | 184 kts | 195° |
| 2026-05-01 13:18 | 36.80173 | 10.17960 | 1973 ft | 188 kts | 195° |
| 2026-05-01 13:18 | 36.78950 | 10.17517 | 1884 ft | 176 kts | 195° |
| 2026-05-01 13:18 | 36.77780 | 10.17096 | 1894 ft | 175 kts | 195° |
| 2026-05-01 13:18 | 36.76652 | 10.16689 | 1870 ft | 165 kts | 195° |
| 2026-05-01 13:19 | 36.75571 | 10.16297 | 1853 ft | 162 kts | 195° |
| 2026-05-01 13:19 | 36.74461 | 10.16155 | 1842 ft | 161 kts | 159° |
| 2026-05-01 13:19 | 36.73975 | 10.18214 | 1862 ft | 143 kts | 42° |
| 2026-05-01 13:20 | 36.74776 | 10.18956 | 1840 ft | 147 kts | 36° |
| 2026-05-01 13:20 | 36.75591 | 10.19746 | 1692 ft | 149 kts | 31° |
| 2026-05-01 13:20 | 36.76542 | 10.20221 | 1522 ft | 148 kts | 17° |
| 2026-05-01 13:21 | 36.78540 | 10.20886 | 1115 ft | 150 kts | 14° |
| 2026-05-01 13:21 | 36.79546 | 10.21165 | 889 ft | 147 kts | 12° |
| 2026-05-01 13:21 | 36.80531 | 10.21444 | 712 ft | 142 kts | 13° |
| 2026-05-01 13:21 | 36.81489 | 10.21707 | 520 ft | 140 kts | 13° |
| 2026-05-01 13:22 | 36.82434 | 10.21977 | 312 ft | 141 kts | 11° |
| 2026-05-01 13:22 | 36.83378 | 10.22250 | 213 ft | 137 kts | 10° |
| 2026-05-01 13:22 | 36.84321 | 10.22481 | 51 ft | 138 kts | 13° |
| 2026-05-01 13:22 | 36.85186 | 10.22714 | 33 ft | 109 kts | 11° |
| 2026-05-01 13:23 | 36.85529 | 10.22804 | 30 ft | 30 kts | 14° |
| 2026-05-01 13:23 | 36.85724 | 10.22868 | 29 ft | 29 kts | 12° |
| 2026-05-01 13:23 | 36.85918 | 10.22907 | 28 ft | 28 kts | 351° |
| 2026-05-01 13:23 | 36.86024 | 10.22753 | 29 ft | 17 kts | 263° |
| 2026-05-01 13:24 | 36.85937 | 10.22653 | 29 ft | 20 kts | 200° |
| 2026-05-01 13:24 | 36.85787 | 10.22608 | 29 ft | 23 kts | 193° |
| 2026-05-01 13:24 | 36.85636 | 10.22567 | 29 ft | 22 kts | 193° |
| 2026-05-01 13:25 | 36.85405 | 10.22503 | 30 ft | 0 kts | 192° |